Miami, FL (33186)

4:25 PM EDT on June 03, 2015 (GMT -0400)
Metrozoo | | Change Station
CLOSE
Current Station
Personal Weather Station
Location: Miami, FL
Elevation: 9 ft
Nearby Weather Stations

Elev 9 ft 25.64 °N, 80.39 °W | Updated 11 seconds ago

Mostly Cloudy
Mostly Cloudy
90.9 °F
Feels Like 94 °F
N
3.8
Wind Variable Wind from East
Gusts 3.8 mph

Today
High -- | Low -- °F
--% Chance of Precip.
Yesterday
High -- | Low -- °F
Precip. -- in
6:30 AM 8:09 PM
Full, 98% visible
Pressure 29.90 in
Visibility 10.0 miles
Clouds Scattered Clouds 2700 ft
Mostly Cloudy 3700 ft
Mostly Cloudy 4500 ft
Heat Index 94 °F
Dew Point 67 °F
Humidity 45%
Rainfall 0.00 in
Snow Depth Not available.
UV 1.0 out of 12
Pollen .50 out of 12
Air Quality Not available.
Flu Activity Sporadic
METAR KTMB 031953Z 13010KT 10SM SCT027 BKN037 BKN045 29/22 A2990 RMK AO2 SLP124 T02890222

More Conditions Fewer Conditions

Pressure 29.90 in
Visibility 10.0 miles
Clouds Scattered Clouds 2700 ft
Mostly Cloudy 3700 ft
Mostly Cloudy 4500 ft
Heat Index 94 °F
Dew Point 67 °F
Humidity 45%
Rainfall 0.00 in
Snow Depth Not available.
UV 1.0 out of 12
Pollen .50 out of 12
Air Quality Not available.
Flu Activity Sporadic
METAR KTMB 031953Z 13010KT 10SM SCT027 BKN037 BKN045 29/22 A2990 RMK AO2 SLP124 T02890222

More Conditions Fewer Conditions

Nowcast | as of 2:53 PM EDT on June 3, 2015

Scattered showers and an isolated thunderstorm or two will continue across parts of South Florida through the late afternoon. Areas most likely to be affected by the rain will be south of a Everglades City to West Palm Beach line, including most of the Southeast Florida Metro area. As the afternoon progresses, the showers and thunderstorms will gradually shift to the west and affect more of Collier County. Over the Atlantic, more widespread rain and scattered thunderstorms will occur mainly over the waters off of southern Miami-Dade County stretching all way to the western Bahamas. Mariners in these areas can expect locally gusty winds and rough seas.

×

10-Day Weather Forecast

×

Almanac

Astronomy

Jun. 03, 2015 Rise Set
Actual Time
Civil Twilight
Nautical Twilight
Astronomical Twilight
Moon
Length of Visible Light
Length of Day
Tomorrow will be .
, % of the Moon is Illuminated

Today's Extremes

State Highs State Lows

Community

WunderPhotos

Upload Photos

1,826,277 photos uploaded!

WunderBlogs® & News

Nearby

Air Quality

  Air Quality AQ Index Pollutant
Not available.

Snow Depth

Station Depth Elevation

Earthquake Activity

City Distance Mag. Time & Date
Minimum magnitude displayed is 2.5.

Coastal Water Temperatures

Place Temperature

Stations

Nearby Weather Stations

Station Location Temp. Windchill Dew Point Humidity Wind Precip. Elev Updated Type